Terminal Aerodrome Forecast
Issued by NWS

Home | Current Version | Previous Version | Text Only | Print | Product List | Glossary On
Versions: 1 2 3 4 5 6 7 8 9 10 11 12 13 14 15 16 17 18 19 20 21 22 23 24
000
FTAK31 PANC 051121
TAFAIL
TAF
PAIL 051121Z 0512/0612 08008KT P6SM VCSH OVC060
     FM051700 09011G20KT P6SM -SHRA SCT030 OVC040
     FM052200 12015G26KT P6SM VCSH SCT050 BKN100
     FM060300 12018G30KT P6SM BKN035=

USA.gov is the U.S. government's official web portal to all federal, state and local government web resources and services.